createdAt,value
2022-08-21T00:02:35.765Z,63.50
2022-08-21T00:05:33.699Z,63.60
2022-08-21T00:08:20.916Z,63.51
2022-08-21T00:16:08.691Z,63.18
2022-08-21T00:32:47.715Z,62.65
2022-08-21T00:40:02.127Z,62.62
2022-08-21T00:43:13.493Z,62.36
2022-08-21T00:46:21.973Z,62.27
2022-08-21T00:49:36.362Z,62.08
2022-08-21T00:52:19.686Z,62.13
2022-08-21T00:55:31.151Z,62.11
2022-08-21T00:58:42.761Z,61.79
2022-08-21T01:01:54.851Z,61.99
2022-08-21T01:04:53.045Z,61.86
2022-08-21T01:07:59.656Z,61.92
2022-08-21T01:11:08.179Z,61.85
2022-08-21T01:14:19.363Z,62.03
2022-08-21T01:17:27.795Z,62.06
2022-08-21T01:20:45.577Z,61.93
2022-08-21T01:24:01.637Z,62.18
2022-08-21T01:26:53.236Z,62.27
2022-08-21T01:29:44.179Z,62.13
2022-08-21T01:32:57.970Z,62.23
2022-08-21T01:36:07.508Z,62.33
2022-08-21T01:38:44.285Z,62.40
2022-08-21T01:41:35.161Z,62.58
2022-08-21T01:44:26.597Z,62.74
2022-08-21T01:47:16.014Z,62.57
2022-08-21T01:50:10.628Z,62.85
2022-08-21T01:53:18.823Z,63.02
2022-08-21T01:56:29.875Z,63.38
2022-08-21T01:59:38.022Z,63.32
2022-08-21T02:02:34.882Z,63.47
2022-08-21T02:05:58.531Z,63.78
2022-08-21T02:09:31.461Z,63.97
2022-08-21T02:12:22.367Z,64.19
2022-08-21T02:15:10.680Z,64.27
2022-08-21T02:18:20.059Z,64.39
2022-08-21T02:21:28.265Z,64.55
2022-08-21T02:24:37.249Z,64.68
2022-08-21T02:27:47.235Z,64.82
2022-08-21T02:31:02.189Z,64.85
2022-08-21T02:34:17.833Z,65.14
2022-08-21T02:37:25.409Z,65.34
2022-08-21T02:40:51.064Z,65.43
2022-08-21T02:44:18.587Z,65.44
2022-08-21T02:47:26.792Z,65.70
2022-08-21T02:50:36.949Z,65.81
2022-08-21T02:54:02.691Z,66.03
2022-08-21T02:57:10.941Z,66.16
2022-08-21T03:00:34.143Z,66.35
2022-08-21T03:03:44.230Z,66.60
2022-08-21T03:07:02.676Z,66.50
2022-08-21T03:09:59.393Z,66.59
2022-08-21T03:13:42.861Z,66.69
2022-08-21T03:16:51.128Z,66.89
2022-08-21T03:20:20.305Z,66.96
2022-08-21T03:23:32.558Z,67.12
2022-08-21T03:26:43.060Z,67.30
2022-08-21T03:29:52.741Z,67.46
2022-08-21T03:32:46.538Z,67.38
2022-08-21T03:35:59.319Z,67.33
2022-08-21T03:39:07.571Z,67.49
2022-08-21T03:42:36.978Z,67.62
2022-08-21T03:45:56.378Z,67.66
2022-08-21T03:48:49.546Z,67.56
2022-08-21T03:51:48.798Z,67.92
2022-08-21T03:55:20.303Z,67.88
2022-08-21T03:58:27.851Z,68.16
2022-08-21T04:01:38.631Z,68.12
2022-08-21T04:04:52.599Z,68.13
2022-08-21T04:08:02.364Z,68.19
2022-08-21T04:11:11.616Z,68.34
2022-08-21T04:14:18.317Z,68.48
2022-08-21T04:17:27.436Z,68.55
2022-08-21T04:20:35.950Z,68.54
2022-08-21T04:24:01.981Z,68.50
2022-08-21T04:27:10.220Z,68.73
2022-08-21T04:34:18.228Z,68.75
2022-08-21T04:42:10.690Z,68.85
2022-08-21T04:45:37.563Z,68.91
2022-08-21T04:52:47.627Z,68.93
2022-08-21T04:55:57.919Z,69.02
2022-08-21T05:03:12.262Z,69.10
2022-08-21T05:06:21.729Z,68.90
2022-08-21T05:09:30.646Z,69.13
2022-08-21T05:16:41.096Z,69.06
2022-08-21T05:19:49.275Z,69.11
2022-08-21T05:23:21.839Z,69.11
2022-08-21T05:26:31.446Z,69.15
2022-08-21T05:29:39.755Z,69.18
2022-08-21T05:33:12.405Z,69.25
2022-08-21T05:36:20.828Z,68.96
2022-08-21T05:39:29.197Z,68.94
2022-08-21T05:43:15.031Z,68.95
2022-08-21T05:46:23.396Z,68.91
2022-08-21T05:53:32.737Z,68.72
2022-08-21T05:57:00.597Z,68.70
2022-08-21T05:59:51.496Z,68.70
2022-08-21T06:03:47.621Z,68.60
2022-08-21T06:10:39.822Z,68.54
2022-08-21T06:17:50.509Z,68.34
2022-08-21T06:21:08.337Z,68.28
2022-08-21T06:24:06.669Z,68.22
2022-08-21T06:27:15.758Z,68.04
2022-08-21T06:30:24.112Z,67.93
2022-08-21T06:33:40.167Z,67.98
2022-08-21T06:36:48.437Z,67.66
2022-08-21T06:39:56.951Z,67.66
2022-08-21T06:43:08.818Z,67.45
2022-08-21T06:46:17.331Z,67.47
2022-08-21T06:49:30.191Z,67.18
2022-08-21T06:52:38.673Z,67.26
2022-08-21T06:56:25.364Z,67.09
2022-08-21T06:59:35.219Z,66.98
2022-08-21T07:02:43.655Z,66.92
2022-08-21T07:06:01.138Z,66.76
2022-08-21T07:09:10.432Z,66.51
2022-08-21T07:12:05.443Z,66.53
2022-08-21T07:14:56.495Z,66.47
2022-08-21T07:18:21.532Z,66.24
2022-08-21T07:25:33.946Z,65.84
2022-08-21T07:29:01.158Z,64.97
2022-08-21T07:31:58.537Z,63.63
2022-08-21T07:34:37.241Z,62.72
2022-08-21T07:37:14.255Z,62.11
2022-08-21T07:39:55.455Z,60.82
2022-08-21T07:42:52.835Z,59.39
2022-08-21T07:45:24.989Z,58.29
2022-08-21T07:48:02.985Z,56.33
2022-08-21T07:50:33.451Z,54.76
2022-08-21T07:53:01.472Z,54.00
2022-08-21T07:55:35.643Z,52.67
2022-08-21T07:58:21.480Z,50.83
2022-08-21T08:01:14.846Z,49.36
2022-08-21T08:03:52.109Z,49.09
2022-08-21T08:06:38.654Z,47.68
2022-08-21T08:09:11.803Z,45.93
2022-08-21T08:11:44.190Z,45.37
2022-08-21T08:14:12.374Z,44.44
2022-08-21T08:16:45.252Z,43.26
2022-08-21T08:19:17.572Z,41.95
2022-08-21T08:21:45.363Z,40.23
2022-08-21T08:24:18.552Z,39.79
2022-08-21T08:26:53.557Z,38.90
2022-08-21T08:29:26.565Z,37.45
2022-08-21T08:32:12.037Z,36.47
2022-08-21T08:34:43.782Z,35.62
2022-08-21T08:37:11.949Z,33.89
2022-08-21T08:39:42.876Z,33.61
2022-08-21T08:42:32.745Z,32.93
2022-08-21T08:45:07.188Z,33.24
2022-08-21T08:47:39.864Z,33.52
2022-08-21T08:50:13.313Z,33.43
2022-08-21T08:52:44.964Z,32.84
2022-08-21T08:55:15.633Z,33.22
2022-08-21T08:57:46.263Z,33.17
2022-08-21T09:00:25.177Z,32.96
2022-08-21T09:02:57.703Z,32.99
2022-08-21T09:05:26.408Z,32.90
2022-08-21T09:08:23.352Z,31.66
2022-08-21T09:10:56.817Z,31.65
2022-08-21T09:13:34.342Z,30.89
2022-08-21T09:16:22.417Z,30.13
2022-08-21T09:19:04.834Z,28.96
2022-08-21T09:21:46.401Z,29.70
2022-08-21T09:24:40.999Z,28.32
2022-08-21T09:27:15.734Z,26.60
2022-08-21T09:29:45.061Z,26.29
2022-08-21T09:32:19.286Z,26.35
2022-08-21T09:35:11.278Z,25.13
2022-08-21T09:37:56.562Z,24.15
2022-08-21T09:40:31.749Z,23.40
2022-08-21T09:43:02.105Z,23.10
2022-08-21T09:45:33.897Z,23.61
2022-08-21T09:48:11.640Z,22.98
2022-08-21T09:50:40.535Z,23.11
2022-08-21T09:53:19.387Z,23.22
2022-08-21T09:56:11.023Z,22.88
2022-08-21T09:59:00.928Z,21.64
2022-08-21T10:01:31.857Z,21.26
2022-08-21T10:04:09.247Z,20.28
2022-08-21T10:06:38.057Z,19.84
2022-08-21T10:09:19.942Z,19.63
2022-08-21T10:12:11.083Z,18.79
2022-08-21T10:14:46.821Z,18.89
2022-08-21T10:17:22.072Z,19.17
2022-08-21T10:19:54.496Z,18.84
2022-08-21T10:22:30.504Z,18.19
2022-08-21T10:25:04.409Z,18.24
2022-08-21T10:27:38.519Z,17.72
2022-08-21T10:30:29.493Z,17.56
2022-08-21T10:33:21.957Z,16.97
2022-08-21T10:35:53.945Z,17.00
2022-08-21T10:38:55.354Z,16.97
2022-08-21T10:42:04.329Z,16.31
2022-08-21T10:44:40.143Z,16.40
2022-08-21T10:47:49.240Z,16.21
2022-08-21T10:51:05.369Z,16.45
2022-08-21T10:54:03.375Z,16.09
2022-08-21T10:57:00.214Z,15.37
2022-08-21T10:59:41.190Z,15.47
2022-08-21T11:02:18.536Z,15.28
2022-08-21T11:04:55.612Z,15.34
2022-08-21T11:07:34.045Z,15.18
2022-08-21T11:10:09.591Z,15.25
2022-08-21T11:12:53.453Z,14.88
2022-08-21T11:15:29.763Z,14.76
2022-08-21T11:18:21.286Z,14.29
2022-08-21T11:21:00.249Z,13.81
2022-08-21T11:23:32.733Z,13.79
2022-08-21T11:26:16.877Z,13.61
2022-08-21T11:28:54.492Z,13.61
2022-08-21T11:31:51.149Z,13.27
2022-08-21T11:34:34.795Z,13.25
2022-08-21T11:37:30.909Z,12.99
2022-08-21T11:40:03.857Z,12.73
2022-08-21T11:42:35.980Z,12.83
2022-08-21T11:45:19.672Z,12.83
2022-08-21T11:47:59.516Z,12.76
2022-08-21T11:50:35.085Z,12.49
2022-08-21T11:53:11.662Z,12.23
2022-08-21T11:56:06.432Z,12.15
2022-08-21T11:58:41.186Z,12.00
2022-08-21T12:01:20.848Z,12.20
2022-08-21T12:03:56.427Z,12.01
2022-08-21T12:06:37.330Z,12.23
2022-08-21T12:09:09.758Z,11.89
2022-08-21T12:11:48.226Z,11.92
2022-08-21T12:14:17.459Z,11.45
2022-08-21T12:16:49.471Z,11.75
2022-08-21T12:19:32.555Z,11.96
2022-08-21T12:22:13.416Z,12.15
2022-08-21T12:25:04.429Z,12.01
2022-08-21T12:28:08.042Z,11.79
2022-08-21T12:30:41.621Z,11.41
2022-08-21T12:33:27.398Z,11.26
2022-08-21T12:36:07.758Z,11.02
2022-08-21T12:39:03.238Z,10.93
2022-08-21T12:42:02.319Z,10.36
2022-08-21T12:45:10.585Z,10.67
2022-08-21T12:47:47.191Z,10.80
2022-08-21T12:50:20.535Z,10.62
2022-08-21T12:52:55.621Z,10.74
2022-08-21T12:55:42.363Z,11.36
2022-08-21T12:58:20.125Z,11.80
2022-08-21T13:00:53.289Z,12.42
2022-08-21T13:03:22.257Z,12.85
2022-08-21T13:05:52.311Z,13.18
2022-08-21T13:08:26.005Z,13.22
2022-08-21T13:11:09.291Z,13.45
2022-08-21T13:13:44.597Z,14.13
2022-08-21T13:16:23.490Z,14.51
2022-08-21T13:18:57.036Z,15.07
2022-08-21T13:21:45.704Z,15.43
2022-08-21T13:27:18.091Z,15.67
2022-08-21T13:29:54.008Z,15.97
2022-08-21T13:32:28.474Z,16.17
2022-08-21T13:35:02.135Z,16.96
2022-08-21T13:37:39.826Z,17.70
2022-08-21T13:40:25.612Z,18.11
2022-08-21T13:42:56.200Z,18.90
2022-08-21T13:45:25.796Z,19.13
2022-08-21T13:47:54.482Z,18.99
2022-08-21T13:50:23.804Z,19.03
2022-08-21T13:53:02.019Z,19.20
2022-08-21T13:55:37.860Z,19.61
2022-08-21T13:58:06.121Z,19.23
2022-08-21T14:00:35.776Z,19.34
2022-08-21T14:03:09.711Z,20.57
2022-08-21T14:05:44.012Z,21.33
2022-08-21T14:08:15.767Z,21.52
2022-08-21T14:10:53.790Z,21.19
2022-08-21T14:13:31.526Z,21.28
2022-08-21T14:16:05.316Z,22.36
2022-08-21T14:18:44.118Z,23.66
2022-08-21T14:21:33.684Z,24.84
2022-08-21T14:24:19.336Z,25.76
2022-08-21T14:26:51.440Z,26.84
2022-08-21T14:29:20.019Z,27.73
2022-08-21T14:31:54.422Z,28.34
2022-08-21T14:34:26.764Z,29.16
2022-08-21T14:36:57.181Z,29.98
2022-08-21T14:39:28.407Z,30.69
2022-08-21T14:41:58.791Z,31.19
2022-08-21T14:44:29.794Z,31.73
2022-08-21T14:46:57.449Z,32.06
2022-08-21T14:49:28.993Z,32.44
2022-08-21T14:51:57.857Z,32.58
2022-08-21T14:54:30.732Z,32.67
2022-08-21T14:57:04.588Z,32.79
2022-08-21T14:59:36.566Z,33.12
2022-08-21T15:02:10.339Z,33.08
2022-08-21T15:04:38.891Z,33.08
2022-08-21T15:07:16.675Z,32.93
2022-08-21T15:10:09.934Z,32.42
2022-08-21T15:12:42.163Z,32.07
2022-08-21T15:27:59.621Z,30.33
2022-08-21T15:30:38.797Z,30.87
2022-08-21T15:33:15.837Z,31.34
2022-08-21T15:36:17.619Z,32.31
2022-08-21T15:38:50.333Z,33.01
2022-08-21T15:41:58.739Z,33.44
2022-08-21T15:48:47.607Z,34.03
2022-08-21T15:51:24.732Z,34.30
2022-08-21T16:02:58.291Z,35.33
2022-08-21T16:06:10.384Z,36.31
2022-08-21T16:08:42.825Z,36.54
2022-08-21T16:16:44.208Z,37.54
2022-08-21T16:20:08.346Z,38.15
2022-08-21T16:23:00.521Z,38.57
2022-08-21T16:25:53.772Z,38.60
2022-08-21T16:28:27.889Z,38.71
2022-08-21T16:31:19.938Z,38.85
2022-08-21T16:33:57.980Z,39.10
2022-08-21T16:36:37.211Z,39.30
2022-08-21T16:39:10.781Z,39.32
2022-08-21T16:41:54.155Z,39.60
2022-08-21T16:44:39.321Z,40.01
2022-08-21T16:47:08.618Z,40.59
2022-08-21T16:49:40.772Z,40.73
2022-08-21T16:52:32.277Z,40.91
2022-08-21T16:55:06.437Z,41.05
2022-08-21T16:58:02.625Z,41.34
2022-08-21T17:00:31.568Z,41.72
2022-08-21T17:03:07.606Z,42.04
2022-08-21T17:05:35.312Z,42.20
2022-08-21T17:08:15.120Z,42.69
2022-08-21T17:11:01.973Z,43.12
2022-08-21T17:14:07.711Z,43.54
2022-08-21T17:16:41.083Z,43.45
2022-08-21T17:19:21.825Z,43.57
2022-08-21T17:22:19.080Z,43.57
2022-08-21T17:25:12.009Z,43.52
2022-08-21T17:28:17.389Z,43.79
2022-08-21T17:30:46.349Z,43.90
2022-08-21T17:33:19.535Z,43.82
2022-08-21T17:35:56.292Z,44.02
2022-08-21T17:38:28.047Z,44.30
2022-08-21T17:40:56.904Z,44.64
2022-08-21T17:43:37.570Z,44.79
2022-08-21T17:46:10.013Z,45.04
2022-08-21T17:48:39.207Z,45.43
2022-08-21T17:51:11.433Z,45.71
2022-08-21T17:53:40.713Z,46.10
2022-08-21T17:56:40.526Z,46.52
2022-08-21T17:59:16.909Z,46.79
2022-08-21T18:01:47.599Z,46.98
2022-08-21T18:04:35.262Z,47.28
2022-08-21T18:07:33.067Z,48.10
2022-08-21T18:10:03.739Z,47.98
2022-08-21T18:12:35.717Z,48.34
2022-08-21T18:15:28.658Z,48.67
2022-08-21T18:18:01.631Z,49.02
2022-08-21T18:25:11.848Z,49.80
2022-08-21T18:27:55.279Z,50.09
2022-08-21T18:30:26.781Z,50.21
2022-08-21T18:33:01.408Z,50.54
2022-08-21T18:35:32.652Z,50.78
2022-08-21T18:38:04.752Z,50.98
2022-08-21T18:41:10.154Z,51.35
2022-08-21T18:44:14.270Z,51.83
2022-08-21T18:47:28.246Z,52.07
2022-08-21T18:50:12.506Z,52.51
2022-08-21T18:53:01.594Z,52.87
2022-08-21T18:56:37.153Z,53.21
2022-08-21T18:59:53.584Z,53.79
2022-08-21T19:02:44.033Z,53.88
2022-08-21T19:05:36.453Z,54.10
2022-08-21T19:08:28.416Z,54.25
2022-08-21T19:11:44.144Z,54.31
2022-08-21T19:14:22.686Z,54.50
2022-08-21T19:21:52.722Z,55.11
2022-08-21T19:24:26.377Z,55.56
2022-08-21T19:27:28.143Z,55.63
2022-08-21T19:34:42.482Z,55.97
2022-08-21T19:37:47.777Z,56.31
2022-08-21T19:40:57.962Z,56.36
2022-08-21T19:43:34.528Z,56.47
2022-08-21T19:46:07.407Z,56.82
2022-08-21T19:49:20.614Z,56.77
2022-08-21T19:52:14.044Z,56.77
2022-08-21T19:55:25.116Z,56.97
2022-08-21T19:58:34.714Z,57.00
2022-08-21T20:01:17.029Z,56.92
2022-08-21T20:03:57.193Z,56.99
2022-08-21T20:07:26.283Z,57.14
2022-08-21T20:10:38.274Z,57.12
2022-08-21T20:13:34.691Z,57.19
2022-08-21T20:16:09.580Z,57.12
2022-08-21T20:18:41.526Z,57.26
2022-08-21T20:21:43.655Z,57.22
2022-08-21T20:24:34.206Z,57.17
2022-08-21T20:27:26.129Z,57.38
2022-08-21T20:30:06.971Z,57.33
2022-08-21T20:32:36.462Z,57.33
2022-08-21T20:35:14.945Z,57.56
2022-08-21T20:38:23.953Z,57.33
2022-08-21T20:41:21.391Z,57.41
2022-08-21T20:44:20.527Z,57.67
2022-08-21T20:47:08.775Z,57.81
2022-08-21T20:53:43.424Z,58.13
2022-08-21T20:56:40.977Z,58.13
2022-08-21T20:59:19.560Z,58.31
2022-08-21T21:02:20.606Z,58.55
2022-08-21T21:05:35.287Z,58.45
2022-08-21T21:08:31.224Z,58.77
2022-08-21T21:11:34.245Z,58.91
2022-08-21T21:14:38.195Z,59.25
2022-08-21T21:17:34.849Z,59.25
2022-08-21T21:20:51.307Z,59.53
2022-08-21T21:24:07.693Z,59.65
2022-08-21T21:27:22.776Z,59.77
2022-08-21T21:30:06.882Z,59.79
2022-08-21T21:33:21.904Z,59.86
2022-08-21T21:36:25.294Z,60.11
2022-08-21T21:39:09.763Z,60.22
2022-08-21T21:42:36.933Z,60.34
2022-08-21T21:46:37.982Z,60.92
2022-08-21T21:50:27.924Z,60.85
2022-08-21T21:53:51.947Z,61.38
2022-08-21T21:57:10.700Z,61.44
2022-08-21T22:00:13.882Z,61.94
2022-08-21T22:03:07.784Z,61.96
2022-08-21T22:06:27.253Z,62.30
2022-08-21T22:09:39.057Z,62.51
2022-08-21T22:12:31.053Z,62.62
2022-08-21T22:15:30.596Z,62.76
2022-08-21T22:18:45.107Z,62.93
2022-08-21T22:21:37.267Z,62.87
2022-08-21T22:24:29.798Z,63.01
2022-08-21T22:27:32.158Z,63.06
2022-08-21T22:30:40.247Z,63.32
2022-08-21T22:34:05.403Z,63.57
2022-08-21T22:36:43.521Z,63.94
2022-08-21T22:39:39.440Z,64.29
2022-08-21T22:42:30.871Z,64.86
2022-08-21T22:46:33.954Z,65.27
2022-08-21T22:49:32.435Z,65.67
2022-08-21T22:52:27.234Z,66.24
2022-08-21T22:55:36.692Z,66.61
2022-08-21T22:58:29.634Z,67.11
2022-08-21T23:01:36.005Z,67.38
2022-08-21T23:04:49.972Z,67.74
2022-08-21T23:07:43.674Z,67.85
2022-08-21T23:10:39.670Z,68.16
2022-08-21T23:13:56.436Z,68.46
2022-08-21T23:17:14.371Z,68.38
2022-08-21T23:20:17.162Z,68.64
2022-08-21T23:23:20.553Z,68.76
2022-08-21T23:26:25.577Z,69.05
2022-08-21T23:29:26.418Z,69.35
2022-08-21T23:32:39.307Z,69.59
2022-08-21T23:36:35.749Z,70.21
2022-08-21T23:40:05.038Z,70.80
2022-08-21T23:44:51.285Z,71.15
2022-08-21T23:52:22.910Z,72.08
2022-08-21T23:59:34.072Z,72.48
